Time;durP1;ratioP1;P1;durP2;ratioP2;P2;SDS_P1;SDS_P2;PMS_P1;PMS_P2;Temp;Humidity;BMP_temperature;BMP_pressure;BME280_temperature;BME280_humidity;BME280_pressure;Samples;Min_cycle;Max_cycle;Signal;HPM_P1;HPM_P2
2022/06/10 00:00:32;;;;;;;;;7.00;6.00;;;;;21.77;47.07;101578.22;2097143;28;47798;-58
2022/06/10 00:01:32;;;;;;;;;4.00;4.00;;;;;21.77;47.39;101580.91;2105124;28;47756;-59
2022/06/10 00:02:33;;;;;;;;;8.00;7.00;;;;;21.76;47.72;101573.75;2105423;27;47505;-58
2022/06/10 00:03:35;;;;;;;;;4.00;4.00;;;;;21.77;47.39;101580.03;2096575;28;47739;-59
2022/06/10 00:04:35;;;;;;;;;7.50;6.50;;;;;21.77;47.20;101577.34;2104704;27;48135;-59
2022/06/10 00:05:36;;;;;;;;;4.67;4.00;;;;;21.77;47.29;101574.63;2109017;27;47829;-59
2022/06/10 00:06:37;;;;;;;;;7.50;5.25;;;;;21.76;47.86;101573.75;2104857;28;47557;-59
2022/06/10 00:07:37;;;;;;;;;5.67;5.67;;;;;21.77;47.29;101574.63;2102808;28;48152;-59
2022/06/10 00:08:42;;;;;;;;;6.33;6.00;;;;;21.76;47.63;101573.75;2103033;28;47466;-59
2022/06/10 00:09:43;;;;;;;;;5.00;5.00;;;;;21.74;47.46;101568.44;2105505;27;47992;-60
2022/06/10 00:10:45;;;;;;;;;4.33;4.33;;;;;21.75;47.69;101572.00;2105985;27;47681;-58
2022/06/10 00:11:46;;;;;;;;;0.50;0.50;;;;;21.74;47.32;101578.38;2105741;27;47876;-59
2022/06/10 00:12:48;;;;;;;;;3.67;3.67;;;;;21.73;47.96;101574.81;2095964;28;47629;-60
2022/06/10 00:13:49;;;;;;;;;4.75;4.75;;;;;21.73;47.40;101573.94;2097062;28;48293;-59
2022/06/10 00:14:50;;;;;;;;;4.00;3.00;;;;;21.72;47.79;101574.88;2105214;28;47184;-57
2022/06/10 00:15:53;;;;;;;;;4.25;3.75;;;;;21.70;47.92;101574.94;2096030;28;47516;-58
2022/06/10 00:16:53;;;;;;;;;3.25;3.25;;;;;21.68;48.02;101571.47;2096820;28;47386;-59
2022/06/10 00:17:54;;;;;;;;;3.67;3.67;;;;;21.67;47.58;101572.44;2104180;28;48009;-58
2022/06/10 00:18:56;;;;;;;;;5.75;4.25;;;;;21.67;48.27;101575.13;2111892;27;47690;-58
2022/06/10 00:19:57;;;;;;;;;5.00;5.00;;;;;21.67;47.65;101574.25;2111851;27;47652;-59
2022/06/10 00:20:59;;;;;;;;;3.00;3.00;;;;;21.65;47.71;101571.63;2104924;28;47753;-59
2022/06/10 00:22:01;;;;;;;;;3.75;3.50;;;;;21.65;48.08;101570.75;2105740;27;48350;-59
2022/06/10 00:23:02;;;;;;;;;5.00;5.00;;;;;21.63;48.17;101570.84;2096627;28;47562;-59
2022/06/10 00:24:03;;;;;;;;;5.00;5.00;;;;;21.63;48.02;101573.56;2096512;28;47649;-59
2022/06/10 00:25:06;;;;;;;;;4.33;4.33;;;;;21.63;48.33;101572.69;2109037;27;48162;-59
2022/06/10 00:26:07;;;;;;;;;4.25;3.50;;;;;21.63;48.39;101569.97;2113884;27;47790;-58
2022/06/10 00:27:19;;;;;;;;;4.75;3.00;;;;;21.64;48.40;101569.91;2105694;27;45349;-59
2022/06/10 00:28:20;;;;;;;;;4.00;4.00;;;;;21.64;47.76;101574.44;2105404;27;47618;-59
2022/06/10 00:29:20;;;;;;;;;7.67;6.67;;;;;21.63;48.43;101567.28;2104740;28;47604;-61
2022/06/10 00:30:24;;;;;;;;;5.00;5.00;;;;;21.64;48.02;101571.72;2095768;28;47293;-59
2022/06/10 00:31:26;;;;;;;;;3.25;3.25;;;;;21.63;48.50;101568.16;2096034;28;47613;-58
2022/06/10 00:32:26;;;;;;;;;4.00;4.00;;;;;21.63;48.38;101573.56;2104898;28;48211;-60
2022/06/10 00:33:27;;;;;;;;;7.00;5.00;;;;;21.62;48.22;101569.13;2105314;27;48042;-59
2022/06/10 00:34:28;;;;;;;;;3.33;3.33;;;;;21.61;48.34;101566.50;2105410;27;48020;-60
2022/06/10 00:35:29;;;;;;;;;3.00;2.00;;;;;21.60;48.27;101564.75;2105003;28;47705;-59
2022/06/10 00:36:29;;;;;;;;;5.00;5.00;;;;;21.59;48.12;101568.38;2110645;27;48071;-58
2022/06/10 00:37:30;;;;;;;;;5.33;5.00;;;;;21.60;48.13;101559.34;2113468;27;47712;-59
2022/06/10 00:38:31;;;;;;;;;7.50;6.00;;;;;21.60;47.90;101567.47;2104766;27;47206;-59
2022/06/10 00:39:34;;;;;;;;;5.00;5.00;;;;;21.58;48.10;101567.50;2108832;27;48072;-59
2022/06/10 00:40:38;;;;;;;;;5.00;5.00;;;;;21.59;47.99;101565.69;2108371;27;48038;-59
2022/06/10 00:41:43;;;;;;;;;6.00;4.25;;;;;21.59;48.29;101571.09;2112204;27;48183;-59
2022/06/10 00:42:44;;;;;;;;;5.50;5.50;;;;;21.58;48.02;101556.72;2109302;27;45122;-58
2022/06/10 00:43:44;;;;;;;;;3.00;3.00;;;;;21.59;48.16;101563.84;2108405;27;47659;-60
2022/06/10 00:44:53;;;;;;;;;4.33;4.33;;;;;21.59;48.13;101568.38;2112067;27;46628;-59
2022/06/10 00:46:06;;;;;;;;;5.00;5.00;;;;;21.60;48.34;101570.16;2108185;27;47908;-60
2022/06/10 00:47:23;;;;;;;;;4.25;4.25;;;;;21.60;48.40;101565.63;2107020;27;48149;-58
2022/06/10 00:48:31;;;;;;;;;5.67;5.67;;;;;21.60;48.08;101562.06;2100265;28;48188;-60
2022/06/10 00:49:32;;;;;;;;;4.00;4.00;;;;;21.60;48.83;101565.63;2103629;27;48028;-59
2022/06/10 00:50:33;;;;;;;;;5.75;5.75;;;;;21.60;48.05;101565.63;2107271;27;47176;-59
2022/06/10 00:51:49;;;;;;;;;4.67;4.67;;;;;21.61;48.59;101559.25;2113215;27;48128;-57
2022/06/10 00:52:56;;;;;;;;;4.50;3.75;;;;;21.61;48.54;101559.25;2112995;27;47827;-59
2022/06/10 00:54:23;;;;;;;;;4.25;4.25;;;;;21.62;48.34;101557.44;2107676;27;47540;-60
2022/06/10 00:55:28;;;;;;;;;5.75;4.75;;;;;21.61;48.17;101555.69;2104897;27;47522;-59
2022/06/10 00:56:29;;;;;;;;;3.00;3.00;;;;;21.60;48.68;101556.66;2109062;27;47708;-59
2022/06/10 00:57:33;;;;;;;;;6.00;6.00;;;;;21.58;48.35;101554.00;2107586;27;46468;-60
2022/06/10 00:58:42;;;;;;;;;5.25;4.25;;;;;21.58;48.81;101553.13;2105505;27;47481;-59
2022/06/10 00:59:48;;;;;;;;;5.50;4.00;;;;;21.57;48.77;101543.28;2108460;27;46996;-60
2022/06/10 01:00:49;;;;;;;;;5.75;5.00;;;;;21.57;48.67;101554.09;2108344;27;47712;-59
2022/06/10 01:02:04;;;;;;;;;7.25;5.00;;;;;21.57;48.74;101551.38;2105109;27;47603;-59
2022/06/10 01:03:05;;;;;;;;;4.25;4.25;;;;;21.56;48.83;101557.75;2098898;28;47960;-59
2022/06/10 01:04:06;;;;;;;;;6.33;5.00;;;;;21.56;48.79;101555.91;2099160;28;47838;-60
2022/06/10 01:05:14;;;;;;;;;4.67;4.67;;;;;21.56;48.68;101546.94;2104795;28;47615;-60
2022/06/10 01:06:15;;;;;;;;;1.25;0.25;;;;;21.56;48.74;101547.81;2108262;27;47912;-60
2022/06/10 01:07:20;;;;;;;;;4.00;4.00;;;;;21.56;48.97;101545.13;2108071;27;47225;-60
2022/06/10 01:08:23;;;;;;;;;4.25;4.25;;;;;21.58;48.88;101550.44;2104841;28;46087;-59
2022/06/10 01:09:25;;;;;;;;;4.75;4.75;;;;;21.57;48.68;101552.25;2112509;27;48059;-59
2022/06/10 01:10:29;;;;;;;;;3.00;3.00;;;;;21.58;48.32;101550.44;2110494;27;47411;-59
2022/06/10 01:11:38;;;;;;;;;5.25;5.25;;;;;21.57;48.86;101549.56;2105025;28;47885;-62
2022/06/10 01:13:03;;;;;;;;;4.00;4.00;;;;;21.57;48.71;101552.25;2107938;27;47655;-59
2022/06/10 01:14:24;;;;;;;;;3.75;3.75;;;;;21.58;48.32;101547.72;2107723;27;47403;-59
2022/06/10 01:15:50;;;;;;;;;3.25;3.25;;;;;21.58;48.30;101542.31;2109004;27;48056;-60
2022/06/10 01:17:18;;;;;;;;;4.25;3.75;;;;;21.56;48.31;101549.66;2112975;27;47407;-59
2022/06/10 01:18:19;;;;;;;;;3.00;3.00;;;;;21.57;48.81;101543.28;2105795;27;47646;-58
2022/06/10 01:19:27;;;;;;;;;4.67;4.33;;;;;21.56;48.80;101550.53;2113028;27;47727;-61
2022/06/10 01:20:51;;;;;;;;;3.75;3.50;;;;;21.56;48.58;101546.94;2110305;27;47747;-59
2022/06/10 01:22:16;;;;;;;;;3.33;3.33;;;;;21.54;48.50;101549.72;2107735;27;47497;-60
2022/06/10 01:23:44;;;;;;;;;3.00;3.00;;;;;21.53;48.97;101547.13;2100710;27;45326;-59
2022/06/10 01:25:09;;;;;;;;;5.00;4.00;;;;;21.51;48.79;101549.91;2105897;27;48019;-58
2022/06/10 01:26:28;;;;;;;;;5.75;5.50;;;;;21.49;48.60;101550.94;2106746;27;47440;-58
2022/06/10 01:28:03;;;;;;;;;3.00;2.50;;;;;21.47;48.80;101548.34;2100128;28;45774;-60
2022/06/10 01:29:21;;;;;;;;;3.00;3.00;;;;;21.44;48.57;101551.19;2096469;28;47669;-58
2022/06/10 01:30:37;;;;;;;;;5.25;5.25;;;;;21.44;49.11;101548.47;2104181;27;48738;-59
2022/06/10 01:31:57;;;;;;;;;3.75;3.75;;;;;21.42;48.77;101548.56;2109024;27;47856;-60
2022/06/10 01:33:31;;;;;;;;;4.50;3.75;;;;;21.40;48.73;101553.19;2106486;27;47574;-60
2022/06/10 01:34:46;;;;;;;;;4.75;4.75;;;;;21.38;49.32;101547.00;2097043;28;45918;-58
2022/06/10 01:35:53;;;;;;;;;5.25;5.25;;;;;21.39;49.14;101550.56;2105926;27;47790;-59
2022/06/10 01:37:12;;;;;;;;;4.00;4.00;;;;;21.38;48.93;101546.13;2103663;27;47441;-58
2022/06/10 01:38:29;;;;;;;;;4.25;4.25;;;;;21.36;49.30;101546.22;2107046;27;47379;-59
2022/06/10 01:39:32;;;;;;;;;4.00;4.00;;;;;21.35;48.94;101544.47;2101587;27;47478;-57
2022/06/10 01:40:38;;;;;;;;;4.00;4.00;;;;;21.34;49.43;101547.22;2092805;28;48150;-58
2022/06/10 01:41:51;;;;;;;;;6.25;4.00;;;;;21.34;49.10;101547.22;2094033;28;47701;-58
2022/06/10 01:43:25;;;;;;;;;5.75;4.50;;;;;21.33;49.42;101545.47;2101084;27;47742;-58
2022/06/10 01:44:50;;;;;;;;;6.50;6.50;;;;;21.33;49.04;101548.19;2065491;28;47563;-59
2022/06/10 01:46:00;;;;;;;;;3.75;2.75;;;;;21.32;49.16;101551.84;2063610;28;47852;-59
2022/06/10 01:47:10;;;;;;;;;3.25;3.25;;;;;21.31;49.65;101545.56;2064884;28;48069;-59
2022/06/10 01:48:34;;;;;;;;;2.75;2.75;;;;;21.31;49.05;101552.78;2067504;28;47802;-58
2022/06/10 01:49:43;;;;;;;;;5.00;5.00;;;;;21.31;49.17;101550.97;2059052;28;47760;-58
2022/06/10 01:50:50;;;;;;;;;3.50;3.50;;;;;21.30;49.37;101546.53;2056193;28;47687;-58
2022/06/10 01:52:08;;;;;;;;;2.75;2.75;;;;;21.30;49.41;101546.53;2056578;28;48262;-59
2022/06/10 01:53:20;;;;;;;;;5.75;4.00;;;;;21.30;49.41;101549.22;2049313;28;47889;-59
2022/06/10 01:55:18;;;;;;;;;6.25;3.75;;;;;21.30;49.29;101554.63;2057436;28;48246;-58
2022/06/10 01:56:37;;;;;;;;;3.00;3.00;;;;;21.29;49.15;101552.88;2025530;29;48016;-58
2022/06/10 01:57:55;;;;;;;;;8.25;3.00;;;;;21.31;49.29;101558.19;2022410;29;47763;-59
2022/06/10 01:59:07;;;;;;;;;4.25;4.25;;;;;21.30;49.20;101553.75;2023887;29;47537;-58
2022/06/10 02:00:15;;;;;;;;;3.00;3.00;;;;;21.29;49.58;101552.00;2022956;29;48000;-59
2022/06/10 02:01:22;;;;;;;;;5.75;5.00;;;;;21.29;49.22;101557.41;2025784;29;48026;-58
2022/06/10 02:02:27;;;;;;;;;3.75;3.75;;;;;21.28;49.61;101548.44;2022122;29;48191;-58
2022/06/10 02:03:34;;;;;;;;;4.00;3.25;;;;;21.29;49.18;101547.47;2022577;29;47993;-59
2022/06/10 02:04:53;;;;;;;;;3.25;3.25;;;;;21.29;49.48;101549.31;2018812;29;48637;-58
2022/06/10 02:06:08;;;;;;;;;2.75;2.75;;;;;21.29;49.21;101549.31;2025713;29;47500;-60
2022/06/10 02:07:23;;;;;;;;;3.00;3.00;;;;;21.29;49.62;101552.88;2024588;29;47539;-59
2022/06/10 02:08:32;;;;;;;;;5.50;5.50;;;;;21.28;49.84;101547.56;2022497;29;47983;-58
2022/06/10 02:09:42;;;;;;;;;3.75;3.00;;;;;21.29;49.36;101552.88;2021958;29;47858;-59
2022/06/10 02:11:13;;;;;;;;;5.25;5.00;;;;;21.30;49.81;101556.44;2021987;29;47291;-60
2022/06/10 02:12:25;;;;;;;;;5.75;4.25;;;;;21.29;49.33;101552.88;1994780;29;47751;-58
2022/06/10 02:13:31;;;;;;;;;4.50;4.00;;;;;21.28;49.80;101552.97;1986881;29;48347;-58
2022/06/10 02:14:40;;;;;;;;;5.00;3.75;;;;;21.27;49.27;101562.88;1993369;29;47593;-61
2022/06/10 02:15:47;;;;;;;;;4.00;3.50;;;;;21.26;49.43;101561.16;2002442;29;47730;-58
2022/06/10 02:16:50;;;;;;;;;4.75;4.75;;;;;21.25;49.43;101561.19;2001500;29;48111;-59
2022/06/10 02:18:00;;;;;;;;;5.00;5.00;;;;;21.24;49.73;101554.06;1999882;29;47930;-58
2022/06/10 02:19:09;;;;;;;;;5.00;5.00;;;;;21.23;49.73;101558.59;1999063;29;47869;-59
2022/06/10 02:20:18;;;;;;;;;3.50;3.50;;;;;21.23;50.14;101557.72;2002838;29;47911;-58
2022/06/10 02:21:28;;;;;;;;;3.75;3.75;;;;;21.22;50.15;101556.84;1999359;29;46022;-58
2022/06/10 02:22:37;;;;;;;;;3.00;3.00;;;;;21.23;49.51;101555.00;2016577;29;47407;-59
2022/06/10 02:23:45;;;;;;;;;5.25;4.25;;;;;21.24;49.95;101552.22;2019979;29;47623;-58
2022/06/10 02:24:55;;;;;;;;;4.00;4.00;;;;;21.23;49.85;101553.19;2016240;29;47810;-58
2022/06/10 02:25:58;;;;;;;;;4.75;4.00;;;;;21.23;49.56;101555.88;2018220;29;47534;-58
2022/06/10 02:27:06;;;;;;;;;4.25;4.25;;;;;21.23;49.51;101550.47;2021896;29;47648;-59
2022/06/10 02:28:15;;;;;;;;;3.75;3.75;;;;;21.21;50.09;101544.28;2024875;29;47137;-59
2022/06/10 02:29:25;;;;;;;;;3.50;3.50;;;;;21.21;49.90;101549.66;2025245;29;47365;-59
2022/06/10 02:30:31;;;;;;;;;4.25;4.25;;;;;21.21;49.58;101551.50;2028896;29;47663;-59
2022/06/10 02:31:38;;;;;;;;;4.00;3.25;;;;;21.20;50.05;101541.66;2026842;29;47648;-58
2022/06/10 02:32:41;;;;;;;;;4.00;3.25;;;;;21.20;49.44;101547.91;2024695;29;46591;-58
2022/06/10 02:33:42;;;;;;;;;4.25;3.75;;;;;21.21;49.50;101552.38;2067541;28;47863;-59
2022/06/10 02:34:43;;;;;;;;;2.67;2.67;;;;;21.21;49.81;101543.41;2074098;28;47425;-58
2022/06/10 02:35:54;;;;;;;;;3.50;3.50;;;;;21.21;50.08;101551.50;2073513;28;47985;-60
2022/06/10 02:37:05;;;;;;;;;4.00;4.00;;;;;21.21;49.71;101549.66;2076952;28;48131;-59
2022/06/10 02:38:20;;;;;;;;;5.25;5.00;;;;;21.20;49.83;101555.16;2073784;28;47594;-58
2022/06/10 02:39:31;;;;;;;;;4.75;3.50;;;;;21.19;50.15;101556.09;2067277;28;47618;-57
2022/06/10 02:40:38;;;;;;;;;4.00;4.00;;;;;21.18;49.96;101557.94;2070723;28;45134;-58
2022/06/10 02:41:51;;;;;;;;;4.50;3.25;;;;;21.17;49.67;101561.59;2077781;28;47484;-59
2022/06/10 02:43:10;;;;;;;;;5.25;5.25;;;;;21.17;49.61;101561.59;2074813;28;47843;-59
2022/06/10 02:44:27;;;;;;;;;5.75;4.75;;;;;21.15;49.86;101563.50;2066873;28;47950;-58
2022/06/10 02:45:33;;;;;;;;;5.00;5.00;;;;;21.14;50.14;101562.63;2073436;28;46056;-59
2022/06/10 02:46:46;;;;;;;;;4.75;4.75;;;;;21.14;50.21;101562.63;2076666;28;47892;-58
2022/06/10 02:47:54;;;;;;;;;5.75;4.75;;;;;21.13;50.15;101558.19;2075520;28;47370;-58
2022/06/10 02:49:05;;;;;;;;;2.75;2.75;;;;;21.13;50.19;101562.72;2075369;27;47819;-58
2022/06/10 02:50:07;;;;;;;;;4.00;4.00;;;;;21.12;49.60;101556.44;2095861;28;47671;-59
2022/06/10 02:51:08;;;;;;;;;5.25;5.25;;;;;21.13;49.99;101557.31;2089955;28;47786;-59
2022/06/10 02:52:13;;;;;;;;;6.33;6.33;;;;;21.13;50.23;101555.50;2113776;27;48270;-59
2022/06/10 02:53:13;;;;;;;;;3.25;3.25;;;;;21.13;49.75;101554.63;2110696;27;47626;-58
2022/06/10 02:54:39;;;;;;;;;3.33;3.33;;;;;21.13;50.16;101563.59;2108508;27;47924;-59
2022/06/10 02:55:40;;;;;;;;;7.00;5.25;;;;;21.14;49.81;101567.16;2096583;28;47625;-59
2022/06/10 02:56:41;;;;;;;;;4.67;4.67;;;;;21.14;49.65;101565.31;2099372;28;48246;-58
2022/06/10 03:02:33;;;;;;;;;3.25;3.25;;;;;21.14;49.44;101575.25;2086318;28;47138;-59
2022/06/10 03:03:55;;;;;;;;;6.25;6.25;;;;;21.11;49.56;101576.28;2093081;28;47790;-59
2022/06/10 03:05:12;;;;;;;;;5.25;5.25;;;;;21.09;49.98;101569.22;2097757;28;48175;-58
2022/06/10 03:06:26;;;;;;;;;4.75;3.50;;;;;21.06;49.94;101580.16;2092418;28;47908;-58
2022/06/10 03:07:40;;;;;;;;;7.50;5.75;;;;;21.03;50.15;101566.84;2092087;28;47473;-59
2022/06/10 03:08:53;;;;;;;;;3.75;3.75;;;;;21.03;49.51;101574.94;2091881;28;48105;-59
2022/06/10 03:10:20;;;;;;;;;4.00;4.00;;;;;21.03;49.70;101575.81;2096200;28;47524;-58
2022/06/10 03:11:44;;;;;;;;;6.00;4.25;;;;;21.03;49.62;101580.34;2094314;28;47862;-59
2022/06/10 03:13:09;;;;;;;;;4.50;4.00;;;;;21.01;50.08;101566.91;2099517;28;47566;-59
2022/06/10 03:14:15;;;;;;;;;6.25;5.50;;;;;21.02;49.77;101573.19;2100491;28;48124;-58
2022/06/10 03:15:29;;;;;;;;;6.00;6.00;;;;;21.03;50.07;101572.22;2099702;28;47754;-58
2022/06/10 03:16:51;;;;;;;;;6.25;5.50;;;;;21.02;50.03;101576.75;2096222;28;47447;-58
2022/06/10 03:18:25;;;;;;;;;4.25;4.25;;;;;21.02;50.09;101579.47;2096729;28;47605;-58
2022/06/10 03:19:31;;;;;;;;;4.00;4.00;;;;;21.01;49.40;101579.53;2097256;28;47545;-58
2022/06/10 03:21:10;;;;;;;;;3.25;3.25;;;;;21.00;49.36;101575.09;2099852;28;47666;-59
2022/06/10 03:22:23;;;;;;;;;4.75;4.25;;;;;20.99;50.10;101579.63;2092044;28;47995;-60
2022/06/10 03:24:03;;;;;;;;;4.50;4.50;;;;;20.98;49.84;101577.00;2080926;28;47704;-59
2022/06/10 03:25:23;;;;;;;;;4.00;4.00;;;;;20.98;49.88;101574.31;2097666;28;47547;-59
2022/06/10 03:27:02;;;;;;;;;4.50;4.50;;;;;20.97;49.82;101583.34;2090255;28;46351;-58
2022/06/10 03:28:26;;;;;;;;;3.50;3.50;;;;;20.95;49.89;101586.09;2057041;28;48185;-58
2022/06/10 03:29:50;;;;;;;;;5.50;4.50;;;;;20.95;49.48;101577.13;2055966;28;48260;-58
2022/06/10 03:31:08;;;;;;;;;5.75;4.50;;;;;20.93;49.88;101587.16;2054908;28;47374;-60
2022/06/10 03:32:29;;;;;;;;;4.25;3.00;;;;;20.92;49.49;101588.09;2060406;28;47375;-59
2022/06/10 03:33:37;;;;;;;;;6.00;5.00;;;;;20.91;49.43;101583.66;2054834;28;47443;-59
2022/06/10 03:34:44;;;;;;;;;4.75;2.50;;;;;20.91;49.65;101583.66;2060539;28;48243;-59
2022/06/10 03:35:56;;;;;;;;;3.25;3.25;;;;;20.90;49.45;101590.88;2062759;28;48302;-60
2022/06/10 03:36:59;;;;;;;;;4.25;4.25;;;;;20.90;49.79;101592.69;2071081;28;48140;-57
2022/06/10 03:38:05;;;;;;;;;4.75;4.00;;;;;20.88;49.31;101590.09;2065887;28;47546;-60
2022/06/10 03:39:07;;;;;;;;;5.00;3.25;;;;;20.87;49.89;101591.03;2063841;28;47346;-59
2022/06/10 03:40:15;;;;;;;;;3.00;3.00;;;;;20.85;50.07;101587.56;2066601;28;45633;-60
2022/06/10 03:41:34;;;;;;;;;2.00;2.00;;;;;20.83;49.67;101587.63;2063118;28;46614;-58
2022/06/10 03:42:34;;;;;;;;;4.00;3.50;;;;;20.82;50.13;101583.16;2058117;28;47966;-60
2022/06/10 03:43:38;;;;;;;;;4.33;4.33;;;;;20.82;49.92;101583.16;2062921;28;47522;-57
2022/06/10 03:44:39;;;;;;;;;4.00;4.00;;;;;20.79;49.64;101585.16;2069851;28;47793;-58
2022/06/10 03:45:44;;;;;;;;;3.00;3.00;;;;;20.79;49.71;101582.44;2065575;28;48687;-59
2022/06/10 03:46:49;;;;;;;;;4.50;4.50;;;;;20.79;49.96;101582.44;2068119;28;47773;-59
2022/06/10 03:47:49;;;;;;;;;3.00;3.00;;;;;20.78;50.24;101584.28;2069494;28;47328;-59
2022/06/10 03:48:52;;;;;;;;;5.33;4.00;;;;;20.77;50.34;101584.34;2063711;28;47599;-59
2022/06/10 03:50:03;;;;;;;;;4.00;4.00;;;;;20.77;50.36;101585.22;2062950;28;47729;-59
2022/06/10 03:51:06;;;;;;;;;5.00;5.00;;;;;20.76;50.30;101577.22;2069467;28;47607;-58
2022/06/10 03:52:09;;;;;;;;;4.25;3.25;;;;;20.75;50.34;101580.88;2068737;28;47221;-59
2022/06/10 03:53:23;;;;;;;;;4.25;4.25;;;;;20.75;50.45;101588.97;2068353;28;47457;-60
2022/06/10 03:54:23;;;;;;;;;4.00;4.00;;;;;20.74;50.22;101577.28;2064584;28;47909;-58
2022/06/10 03:55:24;;;;;;;;;2.67;2.67;;;;;20.75;50.37;101583.56;2062722;28;47737;-59
2022/06/10 03:56:25;;;;;;;;;4.00;4.00;;;;;20.74;49.92;101581.81;2067222;28;47669;-59
2022/06/10 03:57:25;;;;;;;;;5.00;5.00;;;;;20.73;50.52;101585.47;2055387;28;47062;-57
2022/06/10 03:58:26;;;;;;;;;4.00;4.00;;;;;20.73;50.50;101580.94;2054911;28;47707;-58
2022/06/10 03:59:26;;;;;;;;;3.67;3.67;;;;;20.74;49.97;101592.63;2062307;28;47418;-59
2022/06/10 04:00:28;;;;;;;;;3.67;3.67;;;;;20.72;50.30;101584.59;2061998;28;47108;-58
2022/06/10 04:01:28;;;;;;;;;4.00;4.00;;;;;20.72;50.15;101587.28;2058119;28;47921;-58
2022/06/10 04:02:28;;;;;;;;;4.00;4.00;;;;;20.72;50.13;101592.69;2066537;28;48001;-58
2022/06/10 04:03:29;;;;;;;;;5.00;5.00;;;;;20.70;50.03;101589.16;2070774;28;48137;-59
2022/06/10 04:04:29;;;;;;;;;4.00;4.00;;;;;20.70;50.37;101588.31;2063664;28;48225;-58
2022/06/10 04:05:30;;;;;;;;;4.00;4.00;;;;;20.71;50.15;101592.75;2084990;27;47422;-58
2022/06/10 04:06:31;;;;;;;;;3.67;3.67;;;;;20.70;50.53;101591.88;2106517;27;47931;-59
2022/06/10 04:07:31;;;;;;;;;4.00;4.00;;;;;20.71;50.53;101590.03;2108796;27;47638;-59
2022/06/10 04:08:32;;;;;;;;;3.67;3.00;;;;;20.71;50.45;101593.66;2105962;27;46472;-60
2022/06/10 04:09:32;;;;;;;;;6.00;5.00;;;;;20.72;50.76;101595.38;2108606;27;47945;-59
2022/06/10 04:10:33;;;;;;;;;3.00;3.00;;;;;20.70;50.50;101591.00;2109589;27;47468;-60
2022/06/10 04:11:33;;;;;;;;;4.00;4.00;;;;;20.71;50.34;101590.03;2112258;27;47089;-59
2022/06/10 04:12:34;;;;;;;;;3.00;3.00;;;;;20.72;50.78;101599.91;2105074;27;47880;-58
2022/06/10 04:13:34;;;;;;;;;3.67;3.67;;;;;20.71;50.74;101601.75;2106935;27;47695;-58
2022/06/10 04:14:35;;;;;;;;;4.00;3.33;;;;;20.70;50.37;101594.56;2106836;27;47452;-58
2022/06/10 04:15:36;;;;;;;;;3.67;3.00;;;;;20.70;50.71;101599.97;2108914;27;47684;-59
2022/06/10 04:16:36;;;;;;;;;2.75;2.75;;;;;20.70;50.90;101599.97;2105304;27;47676;-58
2022/06/10 04:17:37;;;;;;;;;4.67;4.00;;;;;20.69;50.27;101603.59;2108321;27;47846;-58
2022/06/10 04:18:37;;;;;;;;;3.00;3.00;;;;;20.70;50.62;101610.75;2108938;27;47561;-60
2022/06/10 04:19:38;;;;;;;;;3.00;3.00;;;;;20.69;51.05;101603.59;2105237;28;48423;-59
2022/06/10 04:20:40;;;;;;;;;5.33;3.00;;;;;20.68;50.55;101601.88;2108924;27;47486;-59
2022/06/10 04:21:40;;;;;;;;;4.75;4.00;;;;;20.70;50.70;101604.47;2107507;27;48326;-59
2022/06/10 04:22:41;;;;;;;;;4.33;3.33;;;;;20.69;50.48;101600.03;2102268;27;45673;-60
2022/06/10 04:23:41;;;;;;;;;5.67;4.00;;;;;20.68;51.06;101604.56;2100957;28;48019;-56
2022/06/10 04:24:42;;;;;;;;;4.67;4.67;;;;;20.68;50.61;101603.69;2103598;28;45785;-58
2022/06/10 04:25:44;;;;;;;;;5.00;5.00;;;;;20.69;51.03;101600.03;2105278;27;47454;-60
2022/06/10 04:26:45;;;;;;;;;4.00;4.00;;;;;20.69;50.72;101605.44;2109028;27;47322;-58
2022/06/10 04:27:46;;;;;;;;;4.00;4.00;;;;;20.69;50.79;101603.59;2107280;27;47214;-58
2022/06/10 04:28:47;;;;;;;;;4.00;4.00;;;;;20.68;50.75;101601.88;2111851;27;47872;-58
2022/06/10 04:29:47;;;;;;;;;4.00;4.00;;;;;20.67;50.87;101600.13;2107953;27;46149;-59
2022/06/10 04:30:50;;;;;;;;;4.33;4.00;;;;;20.67;50.78;101604.66;2108897;27;47095;-58
2022/06/10 04:31:50;;;;;;;;;5.75;5.75;;;;;20.67;50.93;101604.66;2111455;27;47751;-58
2022/06/10 04:32:51;;;;;;;;;4.00;4.00;;;;;20.68;51.00;101601.00;2106668;27;47983;-58
2022/06/10 04:33:51;;;;;;;;;3.00;3.00;;;;;20.67;50.74;101607.34;2113343;27;47389;-60
2022/06/10 04:34:52;;;;;;;;;3.33;3.33;;;;;20.67;51.07;101604.66;2113576;27;47648;-59
2022/06/10 04:35:52;;;;;;;;;3.00;3.00;;;;;20.67;51.22;101604.66;2097719;28;47065;-60
2022/06/10 04:36:53;;;;;;;;;4.00;4.00;;;;;20.67;51.09;101610.03;2102705;28;47437;-59
2022/06/10 04:37:54;;;;;;;;;7.33;5.67;;;;;20.67;50.78;101610.91;2108224;27;48172;-60
2022/06/10 04:38:55;;;;;;;;;4.00;3.50;;;;;20.68;51.06;101606.38;2107250;27;47668;-60
2022/06/10 04:39:55;;;;;;;;;3.00;3.00;;;;;20.67;51.12;101607.34;2110095;27;48041;-59
2022/06/10 04:40:56;;;;;;;;;3.00;3.00;;;;;20.67;50.97;101612.72;2106692;27;47534;-59
2022/06/10 04:41:56;;;;;;;;;3.00;3.00;;;;;20.64;51.20;101613.75;2113685;27;47405;-60
2022/06/10 04:42:58;;;;;;;;;4.00;4.00;;;;;20.63;51.29;101612.03;2113549;27;47394;-59
2022/06/10 04:43:59;;;;;;;;;5.00;5.00;;;;;20.62;51.44;101612.97;2106999;27;46588;-59
2022/06/10 04:44:59;;;;;;;;;4.67;4.67;;;;;20.63;51.32;101611.16;2111626;27;47592;-60
2022/06/10 04:46:02;;;;;;;;;4.33;4.33;;;;;20.61;51.16;101610.34;2108705;27;47728;-58
2022/06/10 04:47:03;;;;;;;;;5.50;3.00;;;;;20.60;51.19;101611.31;2107938;27;47438;-60
2022/06/10 04:48:04;;;;;;;;;4.00;3.00;;;;;20.57;51.78;101613.19;2111841;27;47548;-59
2022/06/10 04:49:05;;;;;;;;;4.67;3.67;;;;;20.56;51.61;101618.66;2106798;27;48119;-59
2022/06/10 04:50:08;;;;;;;;;4.00;3.75;;;;;20.56;51.34;101614.13;2109322;27;47661;-59
2022/06/10 04:51:08;;;;;;;;;3.75;3.75;;;;;20.57;51.83;101620.41;2110809;27;47589;-59
2022/06/10 04:52:09;;;;;;;;;5.00;4.00;;;;;20.56;51.19;101607.88;2106293;27;48000;-60
2022/06/10 04:53:09;;;;;;;;;4.33;4.00;;;;;20.57;51.67;101615.00;2111027;27;47674;-59
2022/06/10 04:54:11;;;;;;;;;3.00;3.00;;;;;20.57;51.48;101606.91;2106731;27;47750;-59
2022/06/10 04:55:11;;;;;;;;;4.00;4.00;;;;;20.57;51.34;101609.59;2104938;28;47879;-58
2022/06/10 04:56:12;;;;;;;;;4.00;4.00;;;;;20.59;51.16;101612.25;2109243;27;47653;-58
2022/06/10 04:57:13;;;;;;;;;6.00;5.75;;;;;20.58;51.45;101611.34;2105612;27;46840;-57
2022/06/10 04:58:13;;;;;;;;;3.33;3.33;;;;;20.59;51.74;101610.44;2099496;28;47890;-58
2022/06/10 04:59:14;;;;;;;;;4.00;4.00;;;;;20.60;51.45;101608.59;2082517;28;47710;-59
2022/06/10 05:00:22;;;;;;;;;4.00;4.00;;;;;20.60;52.04;101612.19;2085797;28;47992;-57
2022/06/10 05:01:22;;;;;;;;;3.50;3.50;;;;;20.60;51.52;101605.91;2075493;28;47400;-59
2022/06/10 05:02:23;;;;;;;;;3.67;3.67;;;;;20.60;52.08;101614.88;2070986;28;47931;-59
2022/06/10 05:03:23;;;;;;;;;6.67;6.67;;;;;20.60;51.99;101611.31;2095824;28;47681;-58
2022/06/10 05:04:24;;;;;;;;;4.67;4.67;;;;;20.60;51.81;101611.31;2111555;27;47591;-60
2022/06/10 05:05:25;;;;;;;;;5.67;5.00;;;;;20.60;51.84;101606.78;2111546;27;47898;-60
2022/06/10 05:06:26;;;;;;;;;4.00;4.00;;;;;20.60;51.97;101609.47;2104018;27;47696;-59
2022/06/10 05:07:26;;;;;;;;;4.00;4.00;;;;;20.60;51.49;101614.00;2109469;27;47796;-60
2022/06/10 05:08:27;;;;;;;;;5.00;5.00;;;;;20.59;52.07;101610.44;2110220;27;47205;-59
2022/06/10 05:09:27;;;;;;;;;5.00;5.00;;;;;20.59;51.73;101609.56;2113089;27;48085;-60
2022/06/10 05:10:28;;;;;;;;;3.67;3.67;;;;;20.59;51.93;101609.56;2107958;27;48448;-59
2022/06/10 05:11:29;;;;;;;;;3.00;3.00;;;;;20.58;52.14;101608.66;2104726;28;47783;-57
2022/06/10 05:12:29;;;;;;;;;2.67;2.67;;;;;20.59;52.13;101609.56;2111997;27;47482;-58
2022/06/10 05:13:29;;;;;;;;;3.33;1.67;;;;;20.60;51.94;101616.69;2112745;27;47891;-60
2022/06/10 05:14:30;;;;;;;;;4.33;3.00;;;;;20.59;52.08;101618.53;2113008;27;47476;-60
2022/06/10 05:15:30;;;;;;;;;5.67;5.67;;;;;20.60;52.03;101614.88;2109767;27;48091;-60
2022/06/10 05:16:31;;;;;;;;;5.33;5.33;;;;;20.60;52.07;101614.00;2112236;27;47681;-60
2022/06/10 05:17:31;;;;;;;;;5.00;5.00;;;;;20.61;51.74;101613.06;2113006;27;47717;-60